Time;durP1;ratioP1;P1;durP2;ratioP2;P2;SDS_P1;SDS_P2;PMS_P1;PMS_P2;Temp;Humidity;BMP_temperature;BMP_pressure;BME280_temperature;BME280_humidity;BME280_pressure;Samples;Min_cycle;Max_cycle;Signal;HPM_P1;HPM_P2
2024/01/26 00:03:19;;;;;;;;;;;9.80;52.10;;;8.26;54.96;102164.00;12258252;19;20292;-87
2024/01/26 00:07:21;;;;;;;;;;;9.70;52.10;;;8.27;54.85;102176.16;12258986;19;19916;-89
2024/01/26 00:11:23;;;;;;;;;;;9.70;52.10;;;8.00;54.84;102137.75;12258085;19;19926;-88
2024/01/26 00:15:26;;;;;;;;;;;9.60;52.00;;;8.12;55.11;102182.53;12258328;19;20334;-88
2024/01/26 00:19:28;;;;;;;;;;;9.50;52.00;;;7.79;54.80;102136.44;12253970;19;19927;-89
2024/01/26 00:23:30;;;;;;;;;;;9.40;52.00;;;8.03;55.04;102190.53;12255321;19;19915;-88
2024/01/26 00:27:31;;;;;;;;;;;9.40;52.00;;;7.75;54.88;102156.47;12255720;19;20373;-88
2024/01/26 00:31:33;;;;;;;;;;;9.30;52.00;;;7.83;55.04;102177.06;12258371;19;20362;-88
2024/01/26 00:35:34;;;;;;;;;;;9.20;52.00;;;7.66;55.08;102151.44;12257138;19;19975;-89
2024/01/26 00:39:36;;;;;;;;;;;9.20;52.00;;;7.84;55.02;102186.63;12257736;19;19918;-88
2024/01/26 00:43:37;;;;;;;;;;;9.20;52.10;;;7.57;55.01;102147.28;12257110;19;19915;-88
2024/01/26 00:47:39;;;;;;;;;;;9.10;52.10;;;7.71;55.02;102171.25;12251422;19;19917;-88
2024/01/26 00:51:40;;;;;;;;;;;9.10;52.10;;;7.63;55.16;102172.28;12258761;19;19939;-88
2024/01/26 00:55:42;;;;;;;;;;;9.00;52.10;;;7.68;54.97;102180.88;12255345;19;19914;-88
2024/01/26 00:59:44;;;;;;;;;;;9.00;52.10;;;7.61;54.98;102174.06;12255934;19;19924;-88
2024/01/26 01:03:46;;;;;;;;;;;8.90;52.00;;;7.51;55.04;102173.41;12253548;19;19911;-89
2024/01/26 01:07:48;;;;;;;;;;;9.10;52.00;;;7.54;54.91;102186.31;12254493;19;20349;-88
2024/01/26 01:11:49;;;;;;;;;;;8.80;51.90;;;7.52;54.82;102190.69;12256900;19;19922;-89
2024/01/26 01:15:51;;;;;;;;;;;8.80;52.00;;;7.41;54.92;102174.44;12245714;19;19925;-88
2024/01/26 01:19:53;;;;;;;;;;;8.80;52.00;;;7.34;54.92;102171.09;12255115;19;19978;-88
2024/01/26 01:23:54;;;;;;;;;;;8.70;52.00;;;7.26;54.85;102181.66;12253216;19;19919;-88
2024/01/26 01:27:55;;;;;;;;;;;8.60;51.90;;;7.18;55.01;102161.84;12252973;19;19935;-88
2024/01/26 01:31:57;;;;;;;;;;;8.70;52.00;;;7.22;54.95;102174.78;12254422;19;19907;-88
2024/01/26 01:35:59;;;;;;;;;;;8.60;52.00;;;7.19;54.93;102168.78;12255641;19;19915;-88
2024/01/26 01:40:01;;;;;;;;;;;8.50;52.00;;;7.12;54.93;102159.38;12254288;19;19918;-89
2024/01/26 01:44:03;;;;;;;;;;;8.50;52.00;;;7.04;54.83;102139.59;12253073;19;19911;-88
2024/01/26 01:48:05;;;;;;;;;;;8.50;52.00;;;7.03;54.81;102145.66;12252195;19;19978;-88
2024/01/26 01:52:17;;;;;;;;;;;8.50;51.90;;;6.98;54.81;102155.28;12254753;19;19918;-88
2024/01/26 01:56:20;;;;;;;;;;;8.40;51.90;;;6.94;54.65;102142.38;12252080;19;19911;-88
2024/01/26 02:00:22;;;;;;;;;;;8.30;51.80;;;6.71;54.86;102109.03;12251901;19;19939;-88
2024/01/26 02:04:23;;;;;;;;;;;8.30;51.80;;;6.68;55.02;102119.47;12251924;19;19911;-88
2024/01/26 02:08:25;;;;;;;;;;;8.20;51.80;;;6.56;55.02;102108.41;12248293;19;19940;-88
2024/01/26 02:12:26;;;;;;;;;;;8.10;51.80;;;6.69;54.95;102145.38;12253515;19;19915;-88
2024/01/26 02:16:28;;;;;;;;;;;8.10;51.80;;;6.64;55.06;102135.09;12252566;19;19911;-88
2024/01/26 02:20:29;;;;;;;;;;;8.00;51.80;;;6.57;54.98;102128.25;12252662;19;19931;-88
2024/01/26 02:24:30;;;;;;;;;;;7.90;51.80;;;6.58;55.05;102135.16;12249591;19;19986;-88
2024/01/26 02:28:32;;;;;;;;;;;8.00;51.90;;;6.43;54.89;102105.13;12264477;19;19927;-88
2024/01/26 02:32:33;;;;;;;;;;;7.90;51.90;;;6.46;54.86;102125.00;12275286;19;19914;-88
2024/01/26 02:36:36;;;;;;;;;;;7.90;51.80;;;6.26;54.92;102096.75;12273912;19;19914;-88
2024/01/26 02:40:37;;;;;;;;;;;7.80;51.80;;;6.15;54.76;102091.72;12273197;19;19950;-88
2024/01/26 02:44:39;;;;;;;;;;;7.80;51.70;;;6.05;54.79;102078.91;12262701;19;19911;-88
2024/01/26 02:48:40;;;;;;;;;;;7.70;51.70;;;6.16;54.99;102101.22;12270011;19;19918;-88
2024/01/26 02:52:42;;;;;;;;;;;7.60;51.60;;;6.10;55.10;102103.91;12274426;19;19926;-88
2024/01/26 02:56:43;;;;;;;;;;;7.60;51.60;;;5.98;55.15;102091.09;12271925;19;20350;-88
2024/01/26 03:00:45;;;;;;;;;;;7.50;51.60;;;5.94;54.98;102097.19;12274252;19;19926;-89
2024/01/26 03:04:46;;;;;;;;;;;7.50;51.70;;;5.71;54.93;102063.81;12272453;19;20419;-88
2024/01/26 03:08:48;;;;;;;;;;;7.40;51.70;;;5.86;55.16;102083.44;12271515;19;19915;-88
2024/01/26 03:12:49;;;;;;;;;;;7.30;51.70;;;5.86;55.05;102091.22;12274019;19;19911;-89
2024/01/26 03:16:51;;;;;;;;;;;7.30;51.70;;;5.76;54.97;102078.41;12270585;19;19986;-88
2024/01/26 03:20:52;;;;;;;;;;;7.20;51.60;;;5.80;55.05;102094.75;12272010;19;19934;-89
2024/01/26 03:24:54;;;;;;;;;;;7.40;51.70;;;5.73;54.94;102091.41;12269774;19;19978;-88
2024/01/26 03:28:55;;;;;;;;;;;7.20;51.60;;;5.60;55.08;102082.06;12268635;19;19915;-89
2024/01/26 03:32:56;;;;;;;;;;;7.30;51.60;;;5.61;55.10;102094.16;12272685;19;19978;-88
2024/01/26 03:36:58;;;;;;;;;;;7.00;51.60;;;5.54;55.03;102088.19;12270873;19;19922;-88
2024/01/26 03:41:00;;;;;;;;;;;7.00;51.50;;;5.38;55.10;102067.69;12260935;19;19915;-89
2024/01/26 03:45:02;;;;;;;;;;;7.00;51.60;;;5.46;55.02;102073.63;12256036;19;20372;-89
2024/01/26 03:49:03;;;;;;;;;;;6.90;51.50;;;5.41;55.13;102072.81;12255757;19;19919;-89
2024/01/26 03:53:05;;;;;;;;;;;6.90;51.60;;;5.38;54.95;102067.69;12260237;19;19950;-89
2024/01/26 03:57:06;;;;;;;;;;;6.80;51.60;;;5.27;54.99;102057.44;12258255;19;19948;-89
2024/01/26 04:01:08;;;;;;;;;;;6.70;51.60;;;5.32;54.89;102061.69;12258210;19;19926;-89
2024/01/26 04:05:09;;;;;;;;;;;6.90;51.60;;;5.24;55.03;102058.34;12257637;19;19947;-89
2024/01/26 04:09:11;;;;;;;;;;;6.70;51.50;;;5.01;54.83;102035.28;12254809;19;19919;-89
2024/01/26 04:13:12;;;;;;;;;;;6.60;51.30;;;4.74;55.15;101995.03;12256081;19;19958;-89
2024/01/26 04:17:13;;;;;;;;;;;6.50;51.40;;;4.72;55.16;102006.25;12253113;19;19915;-89
2024/01/26 04:21:15;;;;;;;;;;;6.70;51.60;;;4.79;55.03;102002.75;12258122;19;19918;-89
2024/01/26 04:25:16;;;;;;;;;;;6.40;51.60;;;4.75;55.15;101999.34;12256367;19;19927;-89
2024/01/26 04:29:18;;;;;;;;;;;6.40;51.70;;;4.91;54.95;102012.94;12253906;19;19911;-89
2024/01/26 04:33:19;;;;;;;;;;;6.70;51.80;;;4.97;55.09;102012.91;12259376;19;19936;-89
2024/01/26 04:37:21;;;;;;;;;;;6.40;51.70;;;4.94;55.17;102000.00;12257012;19;19915;-89
2024/01/26 04:41:23;;;;;;;;;;;6.40;51.80;;;5.00;55.10;102018.03;12257323;19;19929;-89
2024/01/26 04:45:24;;;;;;;;;;;6.40;51.80;;;4.81;55.33;101973.41;12254440;19;19932;-89
2024/01/26 04:49:26;;;;;;;;;;;6.50;52.00;;;5.04;55.32;102008.50;12255298;19;19915;-89
2024/01/26 04:53:27;;;;;;;;;;;6.50;52.00;;;5.03;55.14;101999.03;12255676;19;19923;-89
2024/01/26 04:57:29;;;;;;;;;;;6.50;52.00;;;4.93;55.08;101989.66;12255483;19;19914;-89
2024/01/26 05:01:30;;;;;;;;;;;6.50;52.00;;;5.01;55.31;102004.22;12249421;19;19907;-89
2024/01/26 05:05:31;;;;;;;;;;;6.70;52.10;;;5.07;55.12;102014.50;12253105;19;19915;-89
2024/01/26 05:09:33;;;;;;;;;;;6.60;52.10;;;5.07;55.38;101998.09;12254174;19;20278;-89
2024/01/26 05:13:34;;;;;;;;;;;6.50;52.10;;;4.96;55.25;101990.47;12255171;19;19927;-89
2024/01/26 05:17:35;;;;;;;;;;;6.80;52.20;;;4.85;55.31;101969.03;12251415;19;19919;-89
2024/01/26 05:21:38;;;;;;;;;;;6.60;52.10;;;4.96;55.27;101985.28;12256220;19;19932;-89
2024/01/26 05:25:41;;;;;;;;;;;6.60;52.10;;;4.79;55.35;101957.03;12250436;19;20334;-89
2024/01/26 05:29:43;;;;;;;;;;;6.60;52.10;;;5.04;55.44;101987.78;12252170;19;20301;-89
2024/01/26 05:33:44;;;;;;;;;;;6.60;52.10;;;4.96;55.24;101963.72;12249725;19;19936;-89
2024/01/26 05:37:46;;;;;;;;;;;6.60;52.10;;;5.04;55.61;101980.03;12251044;19;20338;-89
2024/01/26 05:41:47;;;;;;;;;;;6.60;52.10;;;4.97;55.39;101958.56;12252082;19;19919;-89
2024/01/26 05:45:49;;;;;;;;;;;6.60;52.20;;;5.07;55.46;101967.91;12248133;19;19926;-89
2024/01/26 05:49:50;;;;;;;;;;;6.60;52.20;;;5.11;55.50;101968.72;12252243;19;20338;-89
2024/01/26 05:53:52;;;;;;;;;;;6.60;52.30;;;4.98;55.32;101944.72;12254376;19;19930;-89
2024/01/26 05:57:53;;;;;;;;;;;6.60;52.30;;;4.99;55.28;101949.00;12248222;19;19929;-89
2024/01/26 06:01:55;;;;;;;;;;;6.60;52.30;;;4.84;55.27;101915.56;12250766;19;19926;-89
2024/01/26 06:05:56;;;;;;;;;;;6.70;52.30;;;4.98;55.34;101936.09;12249597;19;20337;-89
2024/01/26 06:09:57;;;;;;;;;;;6.60;52.30;;;5.07;55.53;101943.75;12252202;19;19919;-89
2024/01/26 06:13:59;;;;;;;;;;;6.60;52.30;;;4.92;55.41;101913.75;12251777;19;19923;-89
2024/01/26 06:18:00;;;;;;;;;;;6.60;52.30;;;5.01;55.41;101923.97;12250336;19;19936;-89
2024/01/26 06:22:01;;;;;;;;;;;6.50;52.30;;;4.95;55.63;101905.94;12252390;19;19974;-89
2024/01/26 06:26:03;;;;;;;;;;;6.60;52.50;;;4.95;55.56;101902.50;12248819;19;19918;-89
2024/01/26 06:30:05;;;;;;;;;;;6.60;52.40;;;5.06;55.40;101913.56;12251574;19;19932;-89
2024/01/26 06:34:06;;;;;;;;;;;6.60;52.40;;;5.05;55.57;101917.88;12249281;19;19926;-90
2024/01/26 06:38:08;;;;;;;;;;;6.60;52.40;;;5.02;55.69;101898.94;12248649;19;19914;-89
2024/01/26 06:42:09;;;;;;;;;;;6.60;52.40;;;5.01;55.62;101871.34;12249707;19;19907;-90
2024/01/26 06:46:10;;;;;;;;;;;6.60;52.30;;;4.90;55.37;101855.13;12246882;19;19922;-90
2024/01/26 06:50:12;;;;;;;;;;;6.60;52.30;;;4.84;55.42;101840.53;12251636;19;19919;-91
2024/01/26 06:54:17;;;;;;;;;;;6.60;52.30;;;5.01;55.61;101869.59;12248467;19;21760;-90
2024/01/26 06:58:19;;;;;;;;;;;6.50;52.40;;;4.94;55.71;101849.00;12247504;19;19946;-88
2024/01/26 07:02:20;;;;;;;;;;;6.50;52.40;;;4.95;55.54;101861.09;12249721;19;19919;-90
2024/01/26 07:06:22;;;;;;;;;;;6.50;52.50;;;5.05;55.63;101875.59;12246689;19;19911;-90
2024/01/26 07:10:23;;;;;;;;;;;6.60;52.60;;;4.87;55.59;101830.97;12243642;19;19919;-89
2024/01/26 07:14:24;;;;;;;;;;;6.60;52.60;;;5.07;55.72;101859.16;12249354;19;19958;-91
2024/01/26 07:18:26;;;;;;;;;;;6.60;52.50;;;5.01;55.59;101850.63;12251701;19;20330;-89
2024/01/26 07:22:27;;;;;;;;;;;6.70;52.50;;;5.09;55.56;101865.19;12254730;19;19974;-88
2024/01/26 07:26:29;;;;;;;;;;;6.80;52.60;;;5.00;55.68;101836.00;12252722;19;19945;-88
2024/01/26 07:30:30;;;;;;;;;;;6.60;52.40;;;5.10;55.62;101858.25;12256499;19;19940;-90
2024/01/26 07:34:32;;;;;;;;;;;6.70;52.50;;;5.06;55.74;101846.25;12255406;19;20417;-90
2024/01/26 07:38:33;;;;;;;;;;;6.70;52.50;;;4.96;55.77;101839.50;12255403;19;19923;-89
2024/01/26 07:42:35;;;;;;;;;;;6.70;52.50;;;5.01;55.79;101832.53;12259954;19;19931;-89
2024/01/26 07:46:41;;;;;;;;;;;6.80;52.50;;;5.05;55.62;101835.06;12258278;19;19959;-89
2024/01/26 07:50:43;;;;;;;;;;;6.70;52.50;;;5.03;55.75;101818.69;12259373;19;19914;-90
2024/01/26 07:54:44;;;;;;;;;;;6.70;52.60;;;5.07;55.66;101827.25;12262341;19;19915;-90
2024/01/26 07:58:46;;;;;;;;;;;6.60;52.60;;;5.04;55.82;101801.41;12257932;19;20376;-89
2024/01/26 08:02:47;;;;;;;;;;;6.60;52.60;;;4.91;55.84;101780.03;12258274;19;19926;-87
2024/01/26 08:06:48;;;;;;;;;;;6.60;52.60;;;4.97;55.72;101779.06;12255596;19;19930;-88
2024/01/26 08:10:50;;;;;;;;;;;6.70;52.80;;;4.88;55.74;101749.00;12256261;19;20014;-88
2024/01/26 08:14:51;;;;;;;;;;;6.60;52.90;;;5.19;55.98;101790.84;12254508;19;19934;-88
2024/01/26 08:18:53;;;;;;;;;;;6.70;53.00;;;5.23;55.80;101776.94;12253415;19;19983;-88
2024/01/26 08:22:55;;;;;;;;;;;6.70;53.10;;;5.18;55.88;101736.47;12255821;19;19923;-88
2024/01/26 08:26:57;;;;;;;;;;;6.80;53.20;;;5.22;55.88;101722.59;12250517;19;19931;-88
2024/01/26 08:30:59;;;;;;;;;;;6.80;53.40;;;5.34;55.90;101722.38;12256163;19;20405;-88
2024/01/26 08:35:00;;;;;;;;;;;6.90;53.70;;;5.37;55.99;101724.06;12254090;19;19915;-88
2024/01/26 08:39:02;;;;;;;;;;;7.00;53.40;;;5.41;56.06;101703.28;12250317;19;19918;-88
2024/01/26 08:43:03;;;;;;;;;;;7.00;53.30;;;5.57;56.00;101718.53;12255655;19;19926;-87
2024/01/26 08:47:05;;;;;;;;;;;7.10;53.50;;;5.64;55.90;101707.16;12253358;19;19919;-87
2024/01/26 08:51:07;;;;;;;;;;;7.20;53.50;;;5.67;55.93;101702.81;12255767;19;19907;-87
2024/01/26 08:55:09;;;;;;;;;;;7.20;53.50;;;5.77;56.19;101691.34;12254901;19;19933;-86
2024/01/26 08:59:10;;;;;;;;;;;7.30;53.90;;;5.80;55.97;101697.34;12250246;19;19915;-85
2024/01/26 09:03:14;;;;;;;;;;;7.40;54.10;;;5.58;56.22;101648.53;12247410;19;19911;-85
2024/01/26 09:07:18;;;;;;;;;;;7.50;54.30;;;5.97;56.11;101703.97;12247079;19;20269;-85
2024/01/26 09:11:19;;;;;;;;;;;7.50;53.90;;;5.97;56.18;101670.25;12250762;19;19919;-88
2024/01/26 09:15:21;;;;;;;;;;;7.60;53.90;;;6.17;56.20;101687.13;12244126;19;19927;-88
2024/01/26 09:19:22;;;;;;;;;;;7.70;53.90;;;6.24;55.96;101677.47;12248398;19;20382;-88
2024/01/26 09:23:24;;;;;;;;;;;7.80;54.10;;;6.30;56.20;101664.38;12246233;19;19919;-87
2024/01/26 09:27:26;;;;;;;;;;;7.80;54.10;;;6.29;56.14;101631.53;12244312;19;20298;-88
2024/01/26 09:31:28;;;;;;;;;;;7.90;54.10;;;6.46;56.11;101611.25;12246379;19;20013;-87
2024/01/26 09:35:29;;;;;;;;;;;8.10;54.40;;;6.28;56.12;101575.38;12249264;19;19936;-87
2024/01/26 09:39:30;;;;;;;;;;;8.10;54.40;;;6.54;56.14;101596.34;12244062;19;20654;-87
2024/01/26 09:43:34;;;;;;;;;;;8.20;54.30;;;6.71;56.23;101601.13;12245800;19;19914;-87
2024/01/26 09:47:36;;;;;;;;;;;8.30;54.20;;;6.77;56.32;101592.31;12245058;19;19911;-87
2024/01/26 09:51:38;;;;;;;;;;;8.40;54.40;;;6.65;56.16;101536.41;12248752;19;19934;-87
2024/01/26 09:55:40;;;;;;;;;;;8.50;54.70;;;7.06;56.17;101583.78;12244657;19;20413;-87
2024/01/26 09:59:41;;;;;;;;;;;8.60;54.50;;;7.15;56.31;101582.66;12247059;19;19923;-88
2024/01/26 10:03:43;;;;;;;;;;;8.60;54.40;;;6.96;56.15;101520.84;12238437;19;19918;-86
2024/01/26 10:07:45;;;;;;;;;;;8.80;54.40;;;7.22;56.42;101537.47;12237214;19;19960;-87
2024/01/26 10:11:46;;;;;;;;;;;8.90;54.60;;;7.45;56.18;101547.19;12247603;19;19919;-86
2024/01/26 10:15:48;;;;;;;;;;;8.90;54.80;;;7.52;56.26;101541.78;12251590;19;19955;-87
2024/01/26 10:19:49;;;;;;;;;;;9.10;54.70;;;7.38;56.22;101483.31;12247966;19;19919;-86
2024/01/26 10:23:51;;;;;;;;;;;9.20;54.60;;;7.63;56.41;101502.47;12250186;19;20330;-86
2024/01/26 10:27:52;;;;;;;;;;;9.20;54.70;;;7.67;56.49;101485.00;12248872;19;19966;-87
2024/01/26 10:31:54;;;;;;;;;;;9.20;54.70;;;7.90;56.36;101498.16;12249577;19;20275;-87
2024/01/26 10:35:58;;;;;;;;;;;9.40;54.50;;;7.84;56.32;101451.56;12248370;19;19911;-87
2024/01/26 10:40:01;;;;;;;;;;;9.50;54.70;;;8.05;56.31;101456.97;12248368;19;19923;-87
2024/01/26 10:44:03;;;;;;;;;;;9.60;54.80;;;8.06;56.38;101456.06;12246072;19;20401;-87
2024/01/26 10:48:05;;;;;;;;;;;9.70;54.80;;;8.22;56.43;101474.63;12246737;19;19919;-87
2024/01/26 10:52:08;;;;;;;;;;;9.80;54.90;;;8.31;56.44;101464.72;12257257;19;19914;-88
2024/01/26 10:56:09;;;;;;;;;;;9.90;55.10;;;8.44;56.32;101454.78;12256831;19;19918;-87
2024/01/26 11:00:13;;;;;;;;;;;10.00;54.60;;;8.46;56.32;101426.97;12254132;19;20262;-87
2024/01/26 11:04:17;;;;;;;;;;;10.10;54.70;;;8.52;56.38;101423.28;12252700;19;19918;-87
2024/01/26 11:08:22;;;;;;;;;;;10.10;54.90;;;8.68;56.45;101428.81;12253452;19;19911;-88
2024/01/26 11:12:27;;;;;;;;;;;10.20;54.90;;;8.74;56.56;101408.59;12259869;19;20330;-87
2024/01/26 11:16:35;;;;;;;;;;;10.30;55.00;;;8.87;56.50;101395.97;12256529;19;20330;-88
2024/01/26 11:20:37;;;;;;;;;;;10.40;55.10;;;8.69;56.52;101332.41;12259527;19;19975;-89
2024/01/26 11:24:42;;;;;;;;;;;10.50;55.10;;;9.06;56.56;101347.47;12255615;19;19922;-88
2024/01/26 11:28:47;;;;;;;;;;;10.60;55.30;;;9.01;56.50;101314.69;12253646;19;19914;-86
2024/01/26 11:32:48;;;;;;;;;;;10.70;55.10;;;9.25;56.61;101333.72;12258558;19;19935;-86
2024/01/26 11:37:14;;;;;;;;;;;10.80;55.10;;;9.25;56.58;101305.91;12256883;19;19935;-87
2024/01/26 11:41:16;;;;;;;;;;;10.80;55.30;;;9.30;56.47;101296.16;12256064;19;19927;-86
2024/01/26 11:45:45;;;;;;;;;;;10.90;55.30;;;9.48;56.54;101302.38;12253078;19;19940;-87
2024/01/26 11:49:46;;;;;;;;;;;11.00;55.10;;;9.45;56.46;101288.59;12257413;19;19923;-87
2024/01/26 11:53:47;;;;;;;;;;;11.20;55.20;;;9.50;56.64;101271.88;12256216;19;19907;-87
2024/01/26 11:57:51;;;;;;;;;;;11.20;55.10;;;9.58;56.42;101270.69;12252845;19;19923;-86
2024/01/26 12:01:53;;;;;;;;;;;11.20;55.10;;;9.75;56.67;101278.66;12254628;19;19928;-86
2024/01/26 12:05:55;;;;;;;;;;;11.30;55.20;;;9.76;56.62;101249.06;12253151;19;19927;-87
2024/01/26 12:09:58;;;;;;;;;;;11.30;55.20;;;9.62;56.59;101202.72;12255287;19;19918;-88
2024/01/26 12:14:00;;;;;;;;;;;11.40;55.20;;;9.91;56.53;101239.69;12252285;19;19922;-85
2024/01/26 12:18:02;;;;;;;;;;;11.40;55.50;;;9.82;56.65;101207.03;12251864;19;19922;-87
2024/01/26 12:22:07;;;;;;;;;;;11.50;55.40;;;10.10;56.59;101234.50;12252803;19;19922;-87
2024/01/26 12:26:09;;;;;;;;;;;11.60;55.50;;;10.02;56.59;101203.56;12250799;19;19934;-88
2024/01/26 12:30:11;;;;;;;;;;;11.70;55.60;;;10.22;56.58;101217.47;12252988;19;19915;-87
2024/01/26 12:34:13;;;;;;;;;;;11.80;55.50;;;10.01;56.47;101159.25;12253921;19;19923;-87
2024/01/26 12:38:15;;;;;;;;;;;11.80;55.50;;;10.24;56.67;101179.09;12249073;19;19918;-88
2024/01/26 12:42:17;;;;;;;;;;;11.80;55.60;;;10.34;56.55;101190.81;12254979;19;19922;-90
2024/01/26 12:46:19;;;;;;;;;;;11.90;55.70;;;10.39;56.58;101179.22;12249278;19;19911;-89
2024/01/26 12:50:21;;;;;;;;;;;11.90;55.40;;;10.17;56.61;101123.72;12254603;19;19915;-89
2024/01/26 12:54:23;;;;;;;;;;;12.00;55.60;;;10.44;56.51;101158.13;12252126;19;19915;-89
2024/01/26 12:58:25;;;;;;;;;;;11.90;55.60;;;10.24;56.49;101119.91;12252616;19;20319;-89
2024/01/26 13:02:27;;;;;;;;;;;11.90;55.70;;;10.26;56.58;101111.97;12253634;19;19937;-89
2024/01/26 13:06:28;;;;;;;;;;;12.00;55.80;;;10.49;56.73;101143.09;12248488;19;20330;-89
2024/01/26 13:10:30;;;;;;;;;;;12.00;55.60;;;10.48;56.86;101138.81;12255529;19;19919;-89
2024/01/26 13:14:32;;;;;;;;;;;12.00;55.80;;;10.53;56.56;101134.19;12247809;19;19917;-90
2024/01/26 13:18:33;;;;;;;;;;;12.00;55.70;;;10.43;56.61;101100.78;12241643;19;19915;-89
2024/01/26 13:22:35;;;;;;;;;;;12.00;55.80;;;10.46;56.84;101101.47;12253370;19;20347;-89
2024/01/26 13:26:37;;;;;;;;;;;12.00;55.80;;;10.57;56.65;101090.50;12247996;19;19937;-89
2024/01/26 13:30:38;;;;;;;;;;;12.00;55.80;;;10.58;56.70;101090.41;12251151;19;19985;-89
2024/01/26 13:34:40;;;;;;;;;;;12.10;55.90;;;10.58;56.70;101073.91;12249044;19;19925;-89
2024/01/26 13:38:42;;;;;;;;;;;12.10;55.80;;;10.69;56.71;101091.66;12249955;19;19915;-89
2024/01/26 13:42:43;;;;;;;;;;;12.20;55.80;;;10.56;56.70;101054.88;12251358;19;19911;-88
2024/01/26 13:46:44;;;;;;;;;;;12.20;55.90;;;10.59;56.57;101049.50;12246946;19;19966;-88
2024/01/26 13:50:59;;;;;;;;;;;12.10;56.00;;;10.76;56.94;101057.31;12247815;19;19915;-88
2024/01/26 14:01:07;;;;;;;;;;;12.30;56.10;;;10.76;56.91;101022.50;12250943;19;19918;-89
2024/01/26 14:05:20;;;;;;;;;;;12.20;56.10;;;10.65;56.98;101001.31;12247032;19;19922;-88
2024/01/26 14:09:22;;;;;;;;;;;12.30;56.70;;;10.96;56.83;101032.75;12248733;19;19911;-88
2024/01/26 14:13:23;;;;;;;;;;;12.30;56.30;;;10.78;56.97;100999.78;12248642;19;20333;-88
2024/01/26 14:17:24;;;;;;;;;;;12.40;56.70;;;10.82;56.79;100988.22;12247602;19;19926;-89
2024/01/26 14:21:26;;;;;;;;;;;12.40;56.40;;;11.02;56.95;101011.56;12248908;19;19915;-88
2024/01/26 14:25:27;;;;;;;;;;;12.40;56.40;;;11.08;56.77;101011.22;12248330;19;19923;-88
2024/01/26 14:29:29;;;;;;;;;;;12.50;56.70;;;11.14;56.94;101015.28;12253041;19;19927;-88
2024/01/26 14:33:30;;;;;;;;;;;12.50;56.50;;;11.10;57.00;100994.63;12253921;19;19911;-88
2024/01/26 14:37:32;;;;;;;;;;;12.60;56.70;;;11.23;56.99;101012.19;12247561;19;20402;-88
2024/01/26 14:41:36;;;;;;;;;;;12.60;56.70;;;11.02;57.10;100969.75;12249721;19;19993;-89
2024/01/26 14:45:37;;;;;;;;;;;12.60;56.60;;;11.23;56.99;100990.41;12249747;19;19907;-88
2024/01/26 14:49:40;;;;;;;;;;;12.70;57.20;;;11.37;57.09;101010.59;12250967;19;19915;-88
2024/01/26 14:53:42;;;;;;;;;;;12.70;56.90;;;11.13;57.07;100974.41;12251447;19;19911;-89
2024/01/26 14:57:49;;;;;;;;;;;12.80;56.90;;;11.40;57.18;101016.53;12244749;19;20354;-88
2024/01/26 15:01:50;;;;;;;;;;;12.80;56.70;;;11.37;57.19;101010.59;12249892;19;20242;-88
2024/01/26 15:05:52;;;;;;;;;;;12.80;56.80;;;11.50;57.16;101030.78;12242754;19;19915;-88
2024/01/26 15:09:53;;;;;;;;;;;12.90;56.90;;;11.49;57.18;101031.69;12246537;19;20342;-88
2024/01/26 15:13:55;;;;;;;;;;;12.90;56.90;;;11.46;57.16;101029.25;12241264;19;20384;-88
2024/01/26 15:17:56;;;;;;;;;;;12.90;57.00;;;11.59;57.27;101062.59;12243460;19;19909;-88
2024/01/26 15:21:58;;;;;;;;;;;12.90;57.20;;;11.64;57.07;101081.50;12244663;19;19919;-88
2024/01/26 15:25:59;;;;;;;;;;;13.00;57.60;;;11.46;57.19;101052.78;12242179;19;20381;-88
2024/01/26 15:30:01;;;;;;;;;;;13.00;58.10;;;11.61;57.37;101099.97;12245643;19;19922;-88
2024/01/26 15:34:03;;;;;;;;;;;13.00;57.90;;;11.57;57.32;101101.06;12245801;19;19934;-87
2024/01/26 15:38:05;;;;;;;;;;;13.10;58.60;;;11.77;57.35;101129.59;12250493;19;20276;-88
2024/01/26 15:42:07;;;;;;;;;;;13.10;58.70;;;11.76;57.30;101138.41;12260003;19;19911;-87
2024/01/26 15:46:08;;;;;;;;;;;13.10;57.90;;;11.65;57.12;101135.50;12254482;19;20274;-88
2024/01/26 15:50:10;;;;;;;;;;;13.10;57.60;;;11.71;57.27;101166.56;12255421;19;19982;-88
2024/01/26 15:54:11;;;;;;;;;;;13.10;57.40;;;11.55;57.35;101150.00;12253148;19;20014;-89
2024/01/26 15:58:12;;;;;;;;;;;13.10;57.40;;;11.61;57.35;101194.13;12253194;19;19922;-88
2024/01/26 16:02:14;;;;;;;;;;;13.00;57.00;;;11.51;57.30;101202.47;12252119;19;20322;-88
2024/01/26 16:06:17;;;;;;;;;;;13.00;56.70;;;11.44;57.61;101224.63;12253387;19;19911;-88
2024/01/26 16:10:18;;;;;;;;;;;12.90;56.50;;;11.40;57.50;101224.88;12253434;19;19943;-88
2024/01/26 16:14:19;;;;;;;;;;;12.90;56.50;;;11.23;57.36;101191.72;12256671;19;20254;-88
2024/01/26 16:18:21;;;;;;;;;;;12.80;56.40;;;11.41;57.33;101245.69;12246761;19;19915;-88
2024/01/26 16:22:22;;;;;;;;;;;12.80;56.20;;;11.17;57.21;101202.47;12255050;19;19965;-87
2024/01/26 16:26:23;;;;;;;;;;;12.80;56.20;;;11.27;57.48;101254.22;12251773;19;20351;-87
2024/01/26 16:30:25;;;;;;;;;;;12.80;56.00;;;11.29;57.43;101269.84;12253549;19;19911;-87
2024/01/26 16:34:26;;;;;;;;;;;12.70;56.00;;;11.16;57.17;101256.53;12253191;19;20303;-88
2024/01/26 16:38:27;;;;;;;;;;;12.60;55.80;;;11.17;57.54;101278.28;12245932;19;19926;-88
2024/01/26 16:42:29;;;;;;;;;;;12.60;55.70;;;11.01;57.32;101273.78;12255429;19;19919;-87
2024/01/26 16:46:31;;;;;;;;;;;12.50;55.70;;;11.03;57.38;101279.81;12248091;19;19929;-87
2024/01/26 16:50:33;;;;;;;;;;;12.50;55.60;;;10.91;57.31;101276.91;12251860;19;19922;-87
2024/01/26 16:54:35;;;;;;;;;;;12.40;55.50;;;10.96;57.31;101314.97;12237152;19;19918;-88
2024/01/26 16:58:37;;;;;;;;;;;12.30;55.40;;;10.84;57.34;101305.13;12248465;19;19915;-87
2024/01/26 17:02:39;;;;;;;;;;;12.30;55.40;;;10.65;57.42;101278.16;12248987;19;19948;-87
2024/01/26 17:06:40;;;;;;;;;;;12.30;55.50;;;10.90;57.45;101328.34;12248851;19;19918;-87
2024/01/26 17:10:42;;;;;;;;;;;12.30;55.60;;;10.85;57.48;101346.00;12249264;19;19939;-88
2024/01/26 17:14:43;;;;;;;;;;;12.40;55.50;;;10.86;57.24;101358.16;12249972;19;19974;-87
2024/01/26 17:18:45;;;;;;;;;;;12.30;55.50;;;10.77;57.27;101361.19;12246013;19;20395;-88
2024/01/26 17:22:46;;;;;;;;;;;12.20;55.60;;;10.81;57.49;101378.41;12250498;19;19932;-87
2024/01/26 17:26:48;;;;;;;;;;;12.20;55.50;;;10.56;57.34;101363.03;12246991;19;20273;-87
2024/01/26 17:30:49;;;;;;;;;;;12.20;55.60;;;10.72;57.48;101392.75;12250775;19;20318;-87
2024/01/26 17:34:51;;;;;;;;;;;12.30;55.60;;;10.73;57.31;101432.78;12244654;19;20334;-87
2024/01/26 17:38:52;;;;;;;;;;;12.10;55.50;;;10.55;57.42;101409.16;12246738;19;20333;-87
2024/01/26 17:42:54;;;;;;;;;;;12.10;55.60;;;10.66;57.40;101433.97;12248241;19;19922;-88
2024/01/26 17:46:55;;;;;;;;;;;12.00;55.40;;;10.61;57.37;101440.25;12247598;19;19950;-87
2024/01/26 17:50:56;;;;;;;;;;;12.00;55.20;;;10.57;57.38;101475.22;12246750;19;20334;-88
2024/01/26 17:54:58;;;;;;;;;;;12.00;55.20;;;10.35;57.26;101461.41;12248870;19;19919;-87
2024/01/26 17:58:59;;;;;;;;;;;12.00;55.20;;;10.53;57.62;101531.13;12242234;19;20516;-88
2024/01/26 18:03:01;;;;;;;;;;;11.90;55.00;;;10.43;57.42;101542.88;12251463;19;19918;-87
2024/01/26 18:07:02;;;;;;;;;;;11.90;54.60;;;10.47;57.45;101546.19;12244314;19;20326;-87
2024/01/26 18:11:04;;;;;;;;;;;11.90;54.80;;;10.32;57.29;101558.13;12249703;19;19910;-87
2024/01/26 18:15:07;;;;;;;;;;;11.80;54.70;;;10.37;57.36;101574.47;12248334;19;20334;-87
2024/01/26 18:19:09;;;;;;;;;;;11.80;54.70;;;10.16;57.30;101557.88;12246303;19;20333;-87
2024/01/26 18:23:11;;;;;;;;;;;11.70;54.50;;;10.18;57.39;101576.94;12245593;19;19915;-88
2024/01/26 18:27:12;;;;;;;;;;;11.70;54.60;;;10.27;57.25;101601.81;12245844;19;19926;-88
2024/01/26 18:31:14;;;;;;;;;;;11.60;54.60;;;10.18;57.38;101597.81;12245425;19;20626;-88